sensor_id;sensor_type;location;lat;lon;timestamp;P1;durP1;ratioP1;P2;durP2;ratioP2
76039;SDS011;64736;50.462;4.850;2024-02-28T00:00:28;53.30;;;28.63;;
76039;SDS011;64736;50.462;4.850;2024-02-28T00:02:53;56.92;;;29.00;;
76039;SDS011;64736;50.462;4.850;2024-02-28T00:05:19;62.45;;;32.70;;
76039;SDS011;64736;50.462;4.850;2024-02-28T00:07:45;59.72;;;27.98;;
76039;SDS011;64736;50.462;4.850;2024-02-28T00:10:12;62.22;;;26.77;;
76039;SDS011;64736;50.462;4.850;2024-02-28T00:12:38;68.57;;;29.08;;
76039;SDS011;64736;50.462;4.850;2024-02-28T00:15:04;68.53;;;28.58;;
76039;SDS011;64736;50.462;4.850;2024-02-28T00:17:39;61.17;;;28.85;;
76039;SDS011;64736;50.462;4.850;2024-02-28T00:20:08;58.65;;;28.25;;
76039;SDS011;64736;50.462;4.850;2024-02-28T00:22:35;54.88;;;28.27;;
76039;SDS011;64736;50.462;4.850;2024-02-28T00:25:04;64.25;;;30.67;;
76039;SDS011;64736;50.462;4.850;2024-02-28T00:27:34;60.25;;;28.65;;
76039;SDS011;64736;50.462;4.850;2024-02-28T00:30:00;57.13;;;28.73;;
76039;SDS011;64736;50.462;4.850;2024-02-28T00:32:26;67.93;;;28.92;;
76039;SDS011;64736;50.462;4.850;2024-02-28T00:34:51;66.60;;;30.27;;
76039;SDS011;64736;50.462;4.850;2024-02-28T00:37:17;65.97;;;29.73;;
76039;SDS011;64736;50.462;4.850;2024-02-28T00:39:44;56.10;;;28.95;;
76039;SDS011;64736;50.462;4.850;2024-02-28T00:42:10;51.70;;;28.23;;
76039;SDS011;64736;50.462;4.850;2024-02-28T00:44:36;63.45;;;28.17;;
76039;SDS011;64736;50.462;4.850;2024-02-28T00:47:02;56.00;;;28.13;;
76039;SDS011;64736;50.462;4.850;2024-02-28T00:49:27;51.78;;;29.52;;
76039;SDS011;64736;50.462;4.850;2024-02-28T00:51:53;59.58;;;29.42;;
76039;SDS011;64736;50.462;4.850;2024-02-28T00:54:19;68.50;;;29.45;;
76039;SDS011;64736;50.462;4.850;2024-02-28T00:56:47;67.60;;;29.88;;
76039;SDS011;64736;50.462;4.850;2024-02-28T00:59:13;68.40;;;30.00;;
76039;SDS011;64736;50.462;4.850;2024-02-28T01:01:38;74.18;;;28.38;;
76039;SDS011;64736;50.462;4.850;2024-02-28T01:04:05;79.35;;;30.08;;
76039;SDS011;64736;50.462;4.850;2024-02-28T01:06:30;74.63;;;31.73;;
76039;SDS011;64736;50.462;4.850;2024-02-28T01:08:56;61.30;;;29.98;;
76039;SDS011;64736;50.462;4.850;2024-02-28T01:11:22;57.63;;;29.77;;
76039;SDS011;64736;50.462;4.850;2024-02-28T01:13:48;54.28;;;29.60;;
76039;SDS011;64736;50.462;4.850;2024-02-28T01:16:13;65.60;;;48.65;;
76039;SDS011;64736;50.462;4.850;2024-02-28T01:18:39;45.70;;;30.55;;
76039;SDS011;64736;50.462;4.850;2024-02-28T01:21:05;51.72;;;27.85;;
76039;SDS011;64736;50.462;4.850;2024-02-28T01:23:30;44.65;;;25.15;;
76039;SDS011;64736;50.462;4.850;2024-02-28T01:25:56;45.83;;;24.02;;
76039;SDS011;64736;50.462;4.850;2024-02-28T01:28:22;47.45;;;25.95;;
76039;SDS011;64736;50.462;4.850;2024-02-28T01:30:48;42.50;;;24.80;;
76039;SDS011;64736;50.462;4.850;2024-02-28T01:33:14;40.00;;;23.00;;
76039;SDS011;64736;50.462;4.850;2024-02-28T01:35:40;44.45;;;20.88;;
76039;SDS011;64736;50.462;4.850;2024-02-28T01:38:05;39.72;;;21.65;;
76039;SDS011;64736;50.462;4.850;2024-02-28T01:40:31;46.33;;;24.65;;
76039;SDS011;64736;50.462;4.850;2024-02-28T01:43:03;66.65;;;26.38;;
76039;SDS011;64736;50.462;4.850;2024-02-28T01:45:33;64.00;;;24.58;;
76039;SDS011;64736;50.462;4.850;2024-02-28T01:47:58;66.47;;;25.73;;
76039;SDS011;64736;50.462;4.850;2024-02-28T01:50:25;51.40;;;25.77;;
76039;SDS011;64736;50.462;4.850;2024-02-28T01:52:51;45.80;;;24.48;;
76039;SDS011;64736;50.462;4.850;2024-02-28T01:55:17;50.03;;;25.50;;
76039;SDS011;64736;50.462;4.850;2024-02-28T01:57:43;62.58;;;25.75;;
76039;SDS011;64736;50.462;4.850;2024-02-28T02:00:09;68.00;;;26.45;;
76039;SDS011;64736;50.462;4.850;2024-02-28T02:02:36;69.15;;;24.63;;
76039;SDS011;64736;50.462;4.850;2024-02-28T02:05:02;74.70;;;24.13;;
76039;SDS011;64736;50.462;4.850;2024-02-28T02:07:29;73.43;;;27.73;;
76039;SDS011;64736;50.462;4.850;2024-02-28T02:09:56;76.95;;;26.45;;
76039;SDS011;64736;50.462;4.850;2024-02-28T02:12:21;46.22;;;25.05;;
76039;SDS011;64736;50.462;4.850;2024-02-28T02:14:50;80.20;;;26.35;;
76039;SDS011;64736;50.462;4.850;2024-02-28T02:17:16;69.35;;;26.60;;
76039;SDS011;64736;50.462;4.850;2024-02-28T02:19:42;52.40;;;24.60;;
76039;SDS011;64736;50.462;4.850;2024-02-28T02:22:08;60.30;;;23.42;;
76039;SDS011;64736;50.462;4.850;2024-02-28T02:24:34;57.13;;;24.95;;
76039;SDS011;64736;50.462;4.850;2024-02-28T02:27:00;60.50;;;24.13;;
76039;SDS011;64736;50.462;4.850;2024-02-28T02:29:30;66.43;;;24.50;;
76039;SDS011;64736;50.462;4.850;2024-02-28T02:31:56;56.38;;;24.90;;
76039;SDS011;64736;50.462;4.850;2024-02-28T02:34:22;47.67;;;22.95;;
76039;SDS011;64736;50.462;4.850;2024-02-28T02:36:48;39.47;;;22.08;;
76039;SDS011;64736;50.462;4.850;2024-02-28T02:39:14;37.72;;;20.65;;
76039;SDS011;64736;50.462;4.850;2024-02-28T02:41:40;33.60;;;18.90;;
76039;SDS011;64736;50.462;4.850;2024-02-28T02:44:07;30.98;;;17.50;;
76039;SDS011;64736;50.462;4.850;2024-02-28T02:46:34;35.25;;;18.08;;
76039;SDS011;64736;50.462;4.850;2024-02-28T02:48:59;35.05;;;19.30;;
76039;SDS011;64736;50.462;4.850;2024-02-28T02:51:25;28.08;;;16.83;;
76039;SDS011;64736;50.462;4.850;2024-02-28T02:53:51;29.40;;;18.00;;
76039;SDS011;64736;50.462;4.850;2024-02-28T02:56:18;31.13;;;17.83;;
76039;SDS011;64736;50.462;4.850;2024-02-28T02:58:44;30.25;;;18.52;;
76039;SDS011;64736;50.462;4.850;2024-02-28T03:01:10;30.17;;;16.27;;
76039;SDS011;64736;50.462;4.850;2024-02-28T03:03:36;33.65;;;18.50;;
76039;SDS011;64736;50.462;4.850;2024-02-28T03:06:03;28.30;;;16.80;;
76039;SDS011;64736;50.462;4.850;2024-02-28T03:08:35;33.42;;;17.75;;
76039;SDS011;64736;50.462;4.850;2024-02-28T03:11:00;27.67;;;17.33;;
76039;SDS011;64736;50.462;4.850;2024-02-28T03:13:28;29.95;;;17.17;;
76039;SDS011;64736;50.462;4.850;2024-02-28T03:15:54;32.85;;;18.27;;
76039;SDS011;64736;50.462;4.850;2024-02-28T03:18:19;33.60;;;18.23;;
76039;SDS011;64736;50.462;4.850;2024-02-28T03:20:45;32.72;;;18.55;;
76039;SDS011;64736;50.462;4.850;2024-02-28T03:23:11;29.33;;;16.65;;
76039;SDS011;64736;50.462;4.850;2024-02-28T03:25:36;28.73;;;18.30;;
76039;SDS011;64736;50.462;4.850;2024-02-28T03:28:02;32.03;;;18.70;;
76039;SDS011;64736;50.462;4.850;2024-02-28T03:30:28;32.95;;;17.60;;
76039;SDS011;64736;50.462;4.850;2024-02-28T03:32:54;32.67;;;18.73;;
76039;SDS011;64736;50.462;4.850;2024-02-28T03:35:19;28.02;;;18.08;;
76039;SDS011;64736;50.462;4.850;2024-02-28T03:37:45;29.33;;;17.83;;
76039;SDS011;64736;50.462;4.850;2024-02-28T03:40:11;35.05;;;18.95;;
76039;SDS011;64736;50.462;4.850;2024-02-28T03:42:37;28.20;;;17.65;;
76039;SDS011;64736;50.462;4.850;2024-02-28T03:45:03;44.80;;;17.60;;
76039;SDS011;64736;50.462;4.850;2024-02-28T03:47:29;33.65;;;17.50;;
76039;SDS011;64736;50.462;4.850;2024-02-28T03:49:55;36.28;;;16.63;;
76039;SDS011;64736;50.462;4.850;2024-02-28T03:52:22;30.48;;;17.75;;
76039;SDS011;64736;50.462;4.850;2024-02-28T03:54:48;30.55;;;19.15;;
76039;SDS011;64736;50.462;4.850;2024-02-28T03:57:14;39.67;;;22.65;;
76039;SDS011;64736;50.462;4.850;2024-02-28T03:59:40;30.58;;;19.38;;
76039;SDS011;64736;50.462;4.850;2024-02-28T04:02:06;34.78;;;20.73;;
76039;SDS011;64736;50.462;4.850;2024-02-28T04:04:32;30.25;;;19.05;;
76039;SDS011;64736;50.462;4.850;2024-02-28T04:06:57;28.83;;;18.45;;
76039;SDS011;64736;50.462;4.850;2024-02-28T04:09:23;68.97;;;18.27;;
76039;SDS011;64736;50.462;4.850;2024-02-28T04:11:49;55.38;;;17.65;;
76039;SDS011;64736;50.462;4.850;2024-02-28T04:14:16;39.10;;;16.45;;
76039;SDS011;64736;50.462;4.850;2024-02-28T04:16:42;25.05;;;15.25;;
76039;SDS011;64736;50.462;4.850;2024-02-28T04:21:36;22.23;;;13.82;;
76039;SDS011;64736;50.462;4.850;2024-02-28T04:24:03;26.48;;;14.15;;
76039;SDS011;64736;50.462;4.850;2024-02-28T04:26:32;27.42;;;14.35;;
76039;SDS011;64736;50.462;4.850;2024-02-28T04:28:58;31.98;;;14.90;;
76039;SDS011;64736;50.462;4.850;2024-02-28T04:31:27;37.25;;;15.23;;
76039;SDS011;64736;50.462;4.850;2024-02-28T04:33:52;25.50;;;14.82;;
76039;SDS011;64736;50.462;4.850;2024-02-28T04:36:18;27.27;;;15.75;;
76039;SDS011;64736;50.462;4.850;2024-02-28T04:38:44;23.63;;;13.30;;
76039;SDS011;64736;50.462;4.850;2024-02-28T04:41:09;23.90;;;13.43;;
76039;SDS011;64736;50.462;4.850;2024-02-28T04:43:35;24.08;;;13.55;;
76039;SDS011;64736;50.462;4.850;2024-02-28T04:46:01;37.50;;;14.85;;
76039;SDS011;64736;50.462;4.850;2024-02-28T04:48:29;26.77;;;14.52;;
76039;SDS011;64736;50.462;4.850;2024-02-28T04:50:54;27.25;;;14.30;;
76039;SDS011;64736;50.462;4.850;2024-02-28T04:53:20;25.10;;;13.63;;
76039;SDS011;64736;50.462;4.850;2024-02-28T04:55:46;22.50;;;12.93;;
76039;SDS011;64736;50.462;4.850;2024-02-28T04:58:11;23.30;;;12.98;;
76039;SDS011;64736;50.462;4.850;2024-02-28T05:00:37;23.10;;;13.25;;
76039;SDS011;64736;50.462;4.850;2024-02-28T05:03:03;26.15;;;14.23;;
76039;SDS011;64736;50.462;4.850;2024-02-28T05:05:28;26.48;;;13.88;;
76039;SDS011;64736;50.462;4.850;2024-02-28T05:07:54;22.10;;;11.75;;
76039;SDS011;64736;50.462;4.850;2024-02-28T05:10:20;22.45;;;12.23;;
76039;SDS011;64736;50.462;4.850;2024-02-28T05:12:46;23.85;;;13.27;;
76039;SDS011;64736;50.462;4.850;2024-02-28T05:15:11;20.27;;;12.05;;
76039;SDS011;64736;50.462;4.850;2024-02-28T05:17:37;26.15;;;13.20;;
76039;SDS011;64736;50.462;4.850;2024-02-28T05:20:03;20.98;;;13.15;;
76039;SDS011;64736;50.462;4.850;2024-02-28T05:22:29;25.67;;;13.48;;
76039;SDS011;64736;50.462;4.850;2024-02-28T05:24:55;26.13;;;13.43;;
76039;SDS011;64736;50.462;4.850;2024-02-28T05:27:21;23.70;;;13.75;;
76039;SDS011;64736;50.462;4.850;2024-02-28T05:29:47;22.67;;;13.13;;
76039;SDS011;64736;50.462;4.850;2024-02-28T05:32:13;22.38;;;12.25;;
76039;SDS011;64736;50.462;4.850;2024-02-28T05:34:38;24.30;;;13.63;;
76039;SDS011;64736;50.462;4.850;2024-02-28T05:37:04;28.23;;;14.98;;
76039;SDS011;64736;50.462;4.850;2024-02-28T05:39:30;35.70;;;15.80;;
76039;SDS011;64736;50.462;4.850;2024-02-28T05:41:56;24.98;;;12.85;;
76039;SDS011;64736;50.462;4.850;2024-02-28T05:44:22;22.63;;;13.98;;
76039;SDS011;64736;50.462;4.850;2024-02-28T05:46:49;27.55;;;13.98;;
76039;SDS011;64736;50.462;4.850;2024-02-28T05:49:15;24.60;;;14.13;;
76039;SDS011;64736;50.462;4.850;2024-02-28T05:51:41;26.45;;;13.73;;
76039;SDS011;64736;50.462;4.850;2024-02-28T05:54:07;21.50;;;13.85;;
76039;SDS011;64736;50.462;4.850;2024-02-28T05:56:32;29.75;;;14.23;;
76039;SDS011;64736;50.462;4.850;2024-02-28T05:58:58;24.95;;;13.88;;
76039;SDS011;64736;50.462;4.850;2024-02-28T06:01:24;24.60;;;13.85;;
76039;SDS011;64736;50.462;4.850;2024-02-28T06:03:49;28.02;;;11.98;;
76039;SDS011;64736;50.462;4.850;2024-02-28T06:06:19;24.25;;;12.13;;
76039;SDS011;64736;50.462;4.850;2024-02-28T06:08:44;24.00;;;11.98;;
76039;SDS011;64736;50.462;4.850;2024-02-28T06:11:10;26.02;;;13.38;;
76039;SDS011;64736;50.462;4.850;2024-02-28T06:13:36;23.48;;;12.27;;
76039;SDS011;64736;50.462;4.850;2024-02-28T06:16:02;26.63;;;14.13;;
76039;SDS011;64736;50.462;4.850;2024-02-28T06:18:28;26.17;;;14.20;;
76039;SDS011;64736;50.462;4.850;2024-02-28T06:20:59;28.10;;;13.35;;
76039;SDS011;64736;50.462;4.850;2024-02-28T06:23:25;24.17;;;13.15;;
76039;SDS011;64736;50.462;4.850;2024-02-28T06:25:51;25.33;;;14.00;;
76039;SDS011;64736;50.462;4.850;2024-02-28T06:28:17;25.08;;;14.00;;
76039;SDS011;64736;50.462;4.850;2024-02-28T06:30:43;26.48;;;14.15;;
76039;SDS011;64736;50.462;4.850;2024-02-28T06:33:12;21.25;;;13.85;;
76039;SDS011;64736;50.462;4.850;2024-02-28T06:35:38;25.83;;;13.02;;
76039;SDS011;64736;50.462;4.850;2024-02-28T06:38:04;25.58;;;11.88;;
76039;SDS011;64736;50.462;4.850;2024-02-28T06:40:30;24.73;;;11.88;;
76039;SDS011;64736;50.462;4.850;2024-02-28T06:42:56;25.15;;;13.35;;
76039;SDS011;64736;50.462;4.850;2024-02-28T06:45:21;18.95;;;11.93;;
76039;SDS011;64736;50.462;4.850;2024-02-28T06:47:47;22.23;;;11.13;;
76039;SDS011;64736;50.462;4.850;2024-02-28T06:50:13;24.25;;;11.93;;
76039;SDS011;64736;50.462;4.850;2024-02-28T06:52:40;24.13;;;13.02;;
76039;SDS011;64736;50.462;4.850;2024-02-28T06:55:06;22.70;;;11.18;;
76039;SDS011;64736;50.462;4.850;2024-02-28T06:57:36;23.90;;;11.25;;
76039;SDS011;64736;50.462;4.850;2024-02-28T07:00:04;17.83;;;10.23;;
76039;SDS011;64736;50.462;4.850;2024-02-28T07:02:33;20.85;;;10.80;;
76039;SDS011;64736;50.462;4.850;2024-02-28T07:05:00;20.13;;;12.63;;
76039;SDS011;64736;50.462;4.850;2024-02-28T07:07:26;26.60;;;12.82;;
76039;SDS011;64736;50.462;4.850;2024-02-28T07:09:51;22.73;;;11.77;;
76039;SDS011;64736;50.462;4.850;2024-02-28T07:12:17;25.73;;;12.88;;
76039;SDS011;64736;50.462;4.850;2024-02-28T07:14:43;25.20;;;15.52;;
76039;SDS011;64736;50.462;4.850;2024-02-28T07:17:08;23.30;;;13.95;;
76039;SDS011;64736;50.462;4.850;2024-02-28T07:19:35;23.88;;;12.55;;
76039;SDS011;64736;50.462;4.850;2024-02-28T07:22:01;19.08;;;11.63;;
76039;SDS011;64736;50.462;4.850;2024-02-28T07:24:28;17.77;;;10.00;;
76039;SDS011;64736;50.462;4.850;2024-02-28T07:26:53;21.60;;;11.90;;
76039;SDS011;64736;50.462;4.850;2024-02-28T07:29:19;23.58;;;12.13;;
76039;SDS011;64736;50.462;4.850;2024-02-28T07:31:44;23.75;;;11.95;;
76039;SDS011;64736;50.462;4.850;2024-02-28T07:34:11;19.85;;;11.20;;
76039;SDS011;64736;50.462;4.850;2024-02-28T07:36:36;20.85;;;11.10;;
76039;SDS011;64736;50.462;4.850;2024-02-28T07:39:03;18.30;;;10.80;;
76039;SDS011;64736;50.462;4.850;2024-02-28T07:41:28;20.20;;;11.70;;
76039;SDS011;64736;50.462;4.850;2024-02-28T07:43:54;26.42;;;13.20;;
76039;SDS011;64736;50.462;4.850;2024-02-28T07:46:20;20.55;;;10.68;;
76039;SDS011;64736;50.462;4.850;2024-02-28T07:48:45;21.33;;;11.88;;
76039;SDS011;64736;50.462;4.850;2024-02-28T07:51:11;19.20;;;10.88;;
76039;SDS011;64736;50.462;4.850;2024-02-28T07:53:37;21.17;;;11.77;;
76039;SDS011;64736;50.462;4.850;2024-02-28T07:56:03;21.58;;;11.40;;
76039;SDS011;64736;50.462;4.850;2024-02-28T07:58:29;19.63;;;10.60;;
76039;SDS011;64736;50.462;4.850;2024-02-28T08:00:55;19.42;;;9.88;;
76039;SDS011;64736;50.462;4.850;2024-02-28T08:03:21;21.65;;;9.98;;
76039;SDS011;64736;50.462;4.850;2024-02-28T08:05:46;19.27;;;10.32;;
76039;SDS011;64736;50.462;4.850;2024-02-28T08:08:13;19.17;;;9.07;;
76039;SDS011;64736;50.462;4.850;2024-02-28T08:10:39;17.85;;;9.57;;
76039;SDS011;64736;50.462;4.850;2024-02-28T08:13:05;21.08;;;9.93;;
76039;SDS011;64736;50.462;4.850;2024-02-28T08:15:31;21.50;;;11.02;;
76039;SDS011;64736;50.462;4.850;2024-02-28T08:17:57;20.75;;;10.60;;
76039;SDS011;64736;50.462;4.850;2024-02-28T08:20:23;20.00;;;10.20;;
76039;SDS011;64736;50.462;4.850;2024-02-28T08:22:49;20.20;;;9.85;;
76039;SDS011;64736;50.462;4.850;2024-02-28T08:25:22;23.00;;;10.40;;
76039;SDS011;64736;50.462;4.850;2024-02-28T08:27:48;16.98;;;10.45;;
76039;SDS011;64736;50.462;4.850;2024-02-28T08:30:14;21.50;;;9.43;;
76039;SDS011;64736;50.462;4.850;2024-02-28T08:32:40;17.52;;;9.27;;
76039;SDS011;64736;50.462;4.850;2024-02-28T08:35:08;17.42;;;9.23;;
76039;SDS011;64736;50.462;4.850;2024-02-28T08:37:34;20.23;;;9.18;;
76039;SDS011;64736;50.462;4.850;2024-02-28T08:39:59;17.77;;;8.48;;
76039;SDS011;64736;50.462;4.850;2024-02-28T08:42:25;14.52;;;7.57;;
76039;SDS011;64736;50.462;4.850;2024-02-28T08:44:54;16.88;;;8.55;;
76039;SDS011;64736;50.462;4.850;2024-02-28T08:47:25;15.73;;;8.70;;
76039;SDS011;64736;50.462;4.850;2024-02-28T08:49:52;15.23;;;7.70;;
76039;SDS011;64736;50.462;4.850;2024-02-28T08:52:20;13.93;;;6.80;;
76039;SDS011;64736;50.462;4.850;2024-02-28T08:54:46;15.32;;;7.55;;
76039;SDS011;64736;50.462;4.850;2024-02-28T08:57:13;17.52;;;8.68;;
76039;SDS011;64736;50.462;4.850;2024-02-28T08:59:38;14.65;;;8.07;;
76039;SDS011;64736;50.462;4.850;2024-02-28T09:02:07;15.13;;;7.68;;
76039;SDS011;64736;50.462;4.850;2024-02-28T09:04:33;13.60;;;7.35;;
76039;SDS011;64736;50.462;4.850;2024-02-28T09:06:59;15.18;;;7.63;;
76039;SDS011;64736;50.462;4.850;2024-02-28T09:09:25;14.57;;;8.35;;
76039;SDS011;64736;50.462;4.850;2024-02-28T09:11:51;20.70;;;8.45;;
76039;SDS011;64736;50.462;4.850;2024-02-28T09:14:17;13.65;;;7.95;;
76039;SDS011;64736;50.462;4.850;2024-02-28T09:16:43;17.67;;;8.57;;
76039;SDS011;64736;50.462;4.850;2024-02-28T09:19:08;16.05;;;7.68;;
76039;SDS011;64736;50.462;4.850;2024-02-28T09:21:34;13.00;;;7.45;;
76039;SDS011;64736;50.462;4.850;2024-02-28T09:24:00;14.32;;;9.02;;
76039;SDS011;64736;50.462;4.850;2024-02-28T09:26:27;19.55;;;9.25;;
76039;SDS011;64736;50.462;4.850;2024-02-28T09:28:52;15.48;;;7.70;;
76039;SDS011;64736;50.462;4.850;2024-02-28T09:31:18;15.45;;;8.23;;
76039;SDS011;64736;50.462;4.850;2024-02-28T09:33:45;16.65;;;7.47;;
76039;SDS011;64736;50.462;4.850;2024-02-28T09:36:12;16.98;;;8.65;;
76039;SDS011;64736;50.462;4.850;2024-02-28T09:38:38;15.13;;;8.32;;
76039;SDS011;64736;50.462;4.850;2024-02-28T09:41:04;14.27;;;7.20;;
76039;SDS011;64736;50.462;4.850;2024-02-28T09:43:30;15.73;;;7.75;;
76039;SDS011;64736;50.462;4.850;2024-02-28T09:46:03;16.42;;;8.20;;
76039;SDS011;64736;50.462;4.850;2024-02-28T09:48:30;16.35;;;8.07;;
76039;SDS011;64736;50.462;4.850;2024-02-28T09:50:57;16.00;;;7.00;;
76039;SDS011;64736;50.462;4.850;2024-02-28T09:53:23;15.40;;;7.40;;
76039;SDS011;64736;50.462;4.850;2024-02-28T09:55:50;14.55;;;7.45;;
76039;SDS011;64736;50.462;4.850;2024-02-28T09:58:16;16.35;;;7.80;;
76039;SDS011;64736;50.462;4.850;2024-02-28T10:00:43;19.58;;;9.80;;
76039;SDS011;64736;50.462;4.850;2024-02-28T10:03:11;15.43;;;8.35;;
76039;SDS011;64736;50.462;4.850;2024-02-28T10:05:39;12.70;;;7.23;;
76039;SDS011;64736;50.462;4.850;2024-02-28T10:08:05;12.32;;;6.30;;
76039;SDS011;64736;50.462;4.850;2024-02-28T10:10:31;12.90;;;6.32;;
76039;SDS011;64736;50.462;4.850;2024-02-28T10:12:57;17.42;;;9.30;;
76039;SDS011;64736;50.462;4.850;2024-02-28T10:15:26;23.70;;;10.05;;
76039;SDS011;64736;50.462;4.850;2024-02-28T10:17:52;14.38;;;7.30;;
76039;SDS011;64736;50.462;4.850;2024-02-28T10:20:18;15.73;;;8.02;;
76039;SDS011;64736;50.462;4.850;2024-02-28T10:22:44;14.55;;;7.25;;
76039;SDS011;64736;50.462;4.850;2024-02-28T10:25:10;14.23;;;6.53;;
76039;SDS011;64736;50.462;4.850;2024-02-28T10:27:36;13.43;;;6.55;;
76039;SDS011;64736;50.462;4.850;2024-02-28T10:30:03;14.82;;;8.02;;
76039;SDS011;64736;50.462;4.850;2024-02-28T10:32:33;19.10;;;9.55;;
76039;SDS011;64736;50.462;4.850;2024-02-28T10:35:02;18.23;;;9.40;;
76039;SDS011;64736;50.462;4.850;2024-02-28T10:37:29;17.73;;;9.20;;
76039;SDS011;64736;50.462;4.850;2024-02-28T10:39:58;19.20;;;9.13;;
76039;SDS011;64736;50.462;4.850;2024-02-28T10:42:27;21.98;;;10.23;;
76039;SDS011;64736;50.462;4.850;2024-02-28T10:44:55;17.75;;;9.50;;
76039;SDS011;64736;50.462;4.850;2024-02-28T10:47:23;17.15;;;9.32;;
76039;SDS011;64736;50.462;4.850;2024-02-28T10:49:49;21.60;;;9.43;;
76039;SDS011;64736;50.462;4.850;2024-02-28T10:52:15;18.52;;;9.10;;
76039;SDS011;64736;50.462;4.850;2024-02-28T10:54:45;16.25;;;8.57;;
76039;SDS011;64736;50.462;4.850;2024-02-28T10:57:20;15.75;;;8.40;;
76039;SDS011;64736;50.462;4.850;2024-02-28T10:59:47;17.00;;;8.27;;
76039;SDS011;64736;50.462;4.850;2024-02-28T11:02:13;18.45;;;10.45;;
76039;SDS011;64736;50.462;4.850;2024-02-28T11:04:39;16.63;;;8.02;;
76039;SDS011;64736;50.462;4.850;2024-02-28T11:07:05;17.02;;;7.22;;
76039;SDS011;64736;50.462;4.850;2024-02-28T11:09:31;14.82;;;8.95;;
76039;SDS011;64736;50.462;4.850;2024-02-28T11:11:59;15.57;;;8.27;;
76039;SDS011;64736;50.462;4.850;2024-02-28T11:14:25;15.63;;;7.97;;
76039;SDS011;64736;50.462;4.850;2024-02-28T11:17:01;16.02;;;7.90;;
76039;SDS011;64736;50.462;4.850;2024-02-28T11:19:28;12.60;;;6.88;;
76039;SDS011;64736;50.462;4.850;2024-02-28T11:21:56;14.98;;;7.85;;
76039;SDS011;64736;50.462;4.850;2024-02-28T11:24:22;14.55;;;7.53;;
76039;SDS011;64736;50.462;4.850;2024-02-28T11:26:56;14.65;;;8.25;;
76039;SDS011;64736;50.462;4.850;2024-02-28T11:29:23;12.23;;;5.85;;
76039;SDS011;64736;50.462;4.850;2024-02-28T11:31:56;11.40;;;6.68;;
76039;SDS011;64736;50.462;4.850;2024-02-28T11:34:22;12.93;;;6.60;;
76039;SDS011;64736;50.462;4.850;2024-02-28T11:36:48;10.65;;;6.47;;
76039;SDS011;64736;50.462;4.850;2024-02-28T11:39:15;10.32;;;6.18;;
76039;SDS011;64736;50.462;4.850;2024-02-28T11:41:41;11.02;;;6.57;;
76039;SDS011;64736;50.462;4.850;2024-02-28T11:44:15;12.75;;;7.53;;
76039;SDS011;64736;50.462;4.850;2024-02-28T11:46:45;11.68;;;7.85;;
76039;SDS011;64736;50.462;4.850;2024-02-28T11:49:11;11.77;;;6.93;;
76039;SDS011;64736;50.462;4.850;2024-02-28T11:51:39;18.20;;;9.23;;
76039;SDS011;64736;50.462;4.850;2024-02-28T11:54:08;13.20;;;7.30;;
76039;SDS011;64736;50.462;4.850;2024-02-28T11:56:40;13.60;;;8.50;;
76039;SDS011;64736;50.462;4.850;2024-02-28T11:59:08;9.65;;;5.38;;
76039;SDS011;64736;50.462;4.850;2024-02-28T12:01:37;16.30;;;9.50;;
76039;SDS011;64736;50.462;4.850;2024-02-28T12:04:05;11.30;;;5.88;;
76039;SDS011;64736;50.462;4.850;2024-02-28T12:06:32;8.77;;;4.85;;
76039;SDS011;64736;50.462;4.850;2024-02-28T12:09:02;9.80;;;4.75;;
76039;SDS011;64736;50.462;4.850;2024-02-28T12:11:32;7.45;;;4.05;;
76039;SDS011;64736;50.462;4.850;2024-02-28T12:13:58;8.13;;;5.13;;
76039;SDS011;64736;50.462;4.850;2024-02-28T12:16:25;9.88;;;5.53;;
76039;SDS011;64736;50.462;4.850;2024-02-28T12:18:51;8.50;;;4.68;;
76039;SDS011;64736;50.462;4.850;2024-02-28T12:21:17;10.43;;;5.55;;
76039;SDS011;64736;50.462;4.850;2024-02-28T12:23:44;7.75;;;4.22;;
76039;SDS011;64736;50.462;4.850;2024-02-28T12:26:10;7.97;;;4.28;;
76039;SDS011;64736;50.462;4.850;2024-02-28T12:28:36;7.43;;;3.75;;
76039;SDS011;64736;50.462;4.850;2024-02-28T12:31:01;6.40;;;3.35;;
76039;SDS011;64736;50.462;4.850;2024-02-28T12:33:27;12.35;;;7.93;;
76039;SDS011;64736;50.462;4.850;2024-02-28T12:35:53;6.15;;;3.22;;
76039;SDS011;64736;50.462;4.850;2024-02-28T12:38:19;7.32;;;3.22;;
76039;SDS011;64736;50.462;4.850;2024-02-28T12:40:45;6.85;;;3.65;;
76039;SDS011;64736;50.462;4.850;2024-02-28T12:43:11;10.38;;;5.80;;
76039;SDS011;64736;50.462;4.850;2024-02-28T12:45:36;6.72;;;3.53;;
76039;SDS011;64736;50.462;4.850;2024-02-28T12:48:02;7.10;;;3.53;;
76039;SDS011;64736;50.462;4.850;2024-02-28T12:50:28;6.50;;;3.15;;
76039;SDS011;64736;50.462;4.850;2024-02-28T12:52:55;8.73;;;4.20;;
76039;SDS011;64736;50.462;4.850;2024-02-28T12:55:20;8.30;;;4.45;;
76039;SDS011;64736;50.462;4.850;2024-02-28T12:57:46;7.75;;;3.97;;
76039;SDS011;64736;50.462;4.850;2024-02-28T13:00:12;7.95;;;4.50;;
76039;SDS011;64736;50.462;4.850;2024-02-28T13:02:38;7.35;;;4.20;;
76039;SDS011;64736;50.462;4.850;2024-02-28T13:05:06;7.35;;;3.42;;
76039;SDS011;64736;50.462;4.850;2024-02-28T13:07:32;7.28;;;3.28;;
76039;SDS011;64736;50.462;4.850;2024-02-28T13:09:58;8.38;;;4.53;;
76039;SDS011;64736;50.462;4.850;2024-02-28T13:12:24;6.60;;;3.72;;
76039;SDS011;64736;50.462;4.850;2024-02-28T13:14:50;6.82;;;3.03;;
76039;SDS011;64736;50.462;4.850;2024-02-28T13:17:16;6.63;;;3.17;;
76039;SDS011;64736;50.462;4.850;2024-02-28T13:19:44;6.25;;;3.08;;
76039;SDS011;64736;50.462;4.850;2024-02-28T13:22:11;5.55;;;3.30;;
76039;SDS011;64736;50.462;4.850;2024-02-28T13:24:37;6.50;;;2.60;;
76039;SDS011;64736;50.462;4.850;2024-02-28T13:27:03;6.75;;;3.63;;
76039;SDS011;64736;50.462;4.850;2024-02-28T13:29:29;6.05;;;3.15;;
76039;SDS011;64736;50.462;4.850;2024-02-28T13:31:56;8.55;;;3.80;;
76039;SDS011;64736;50.462;4.850;2024-02-28T13:34:22;5.93;;;2.95;;
76039;SDS011;64736;50.462;4.850;2024-02-28T13:36:48;7.85;;;4.90;;
76039;SDS011;64736;50.462;4.850;2024-02-28T13:39:14;5.05;;;2.90;;
76039;SDS011;64736;50.462;4.850;2024-02-28T13:41:41;5.93;;;2.47;;
76039;SDS011;64736;50.462;4.850;2024-02-28T13:44:07;5.47;;;2.80;;
76039;SDS011;64736;50.462;4.850;2024-02-28T13:46:34;5.07;;;2.85;;
76039;SDS011;64736;50.462;4.850;2024-02-28T13:49:01;5.65;;;2.70;;
76039;SDS011;64736;50.462;4.850;2024-02-28T13:51:26;6.43;;;3.35;;
76039;SDS011;64736;50.462;4.850;2024-02-28T13:53:52;6.60;;;3.83;;
76039;SDS011;64736;50.462;4.850;2024-02-28T13:56:20;6.03;;;3.03;;
76039;SDS011;64736;50.462;4.850;2024-02-28T13:58:46;5.80;;;2.97;;
76039;SDS011;64736;50.462;4.850;2024-02-28T14:01:12;6.72;;;3.70;;
76039;SDS011;64736;50.462;4.850;2024-02-28T14:03:38;5.97;;;3.30;;
76039;SDS011;64736;50.462;4.850;2024-02-28T14:06:04;7.60;;;4.55;;
76039;SDS011;64736;50.462;4.850;2024-02-28T14:08:29;7.03;;;3.10;;
76039;SDS011;64736;50.462;4.850;2024-02-28T14:10:56;9.13;;;4.00;;
76039;SDS011;64736;50.462;4.850;2024-02-28T14:13:23;5.90;;;3.38;;
76039;SDS011;64736;50.462;4.850;2024-02-28T14:15:50;13.70;;;4.53;;
76039;SDS011;64736;50.462;4.850;2024-02-28T14:18:16;7.60;;;3.65;;
76039;SDS011;64736;50.462;4.850;2024-02-28T14:20:43;6.40;;;3.38;;
76039;SDS011;64736;50.462;4.850;2024-02-28T14:23:08;5.25;;;3.05;;
76039;SDS011;64736;50.462;4.850;2024-02-28T14:25:34;7.15;;;3.40;;